sensor_id;sensor_type;location;lat;lon;timestamp;pressure;altitude;pressure_sealevel;temperature;humidity
69971;BME280;57301;50.328;8.542;2023-02-28T00:01:22;99565.84;;;0.20;73.33
69971;BME280;57301;50.328;8.542;2023-02-28T00:03:48;99569.88;;;0.29;73.37
69971;BME280;57301;50.328;8.542;2023-02-28T00:06:18;99565.00;;;0.19;73.04
69971;BME280;57301;50.328;8.542;2023-02-28T00:08:45;99558.84;;;0.20;73.38
69971;BME280;57301;50.328;8.542;2023-02-28T00:11:14;99555.16;;;0.24;73.36
69971;BME280;57301;50.328;8.542;2023-02-28T00:13:44;99554.38;;;0.22;73.15
69971;BME280;57301;50.328;8.542;2023-02-28T00:16:15;99558.34;;;0.11;73.57
69971;BME280;57301;50.328;8.542;2023-02-28T00:18:42;99560.00;;;0.13;73.80
69971;BME280;57301;50.328;8.542;2023-02-28T00:21:09;99559.09;;;0.14;73.61
69971;BME280;57301;50.328;8.542;2023-02-28T00:23:36;99553.59;;;0.20;73.67
69971;BME280;57301;50.328;8.542;2023-02-28T00:26:03;99557.50;;;0.10;74.36
69971;BME280;57301;50.328;8.542;2023-02-28T00:28:30;99551.03;;;-0.03;74.41
69971;BME280;57301;50.328;8.542;2023-02-28T00:30:56;99551.22;;;-0.08;75.06
69971;BME280;57301;50.328;8.542;2023-02-28T00:33:23;99550.38;;;-0.08;75.26
69971;BME280;57301;50.328;8.542;2023-02-28T00:35:50;99552.41;;;0.07;74.45
69971;BME280;57301;50.328;8.542;2023-02-28T00:38:16;99553.00;;;-0.08;74.65
69971;BME280;57301;50.328;8.542;2023-02-28T00:40:43;99557.88;;;0.01;74.12
69971;BME280;57301;50.328;8.542;2023-02-28T00:43:09;99553.59;;;-0.02;74.00
69971;BME280;57301;50.328;8.542;2023-02-28T00:45:36;99557.56;;;-0.13;74.99
69971;BME280;57301;50.328;8.542;2023-02-28T00:48:02;99557.88;;;-0.21;74.75
69971;BME280;57301;50.328;8.542;2023-02-28T00:50:30;99554.22;;;-0.17;74.74
69971;BME280;57301;50.328;8.542;2023-02-28T00:52:56;99559.72;;;-0.23;75.09
69971;BME280;57301;50.328;8.542;2023-02-28T00:55:23;99560.88;;;-0.30;74.75
69971;BME280;57301;50.328;8.542;2023-02-28T00:57:49;99564.28;;;-0.28;74.79
69971;BME280;57301;50.328;8.542;2023-02-28T01:00:16;99565.00;;;-0.24;74.62
69971;BME280;57301;50.328;8.542;2023-02-28T01:02:42;99567.88;;;-0.31;74.84
69971;BME280;57301;50.328;8.542;2023-02-28T01:05:10;99564.09;;;-0.23;74.67
69971;BME280;57301;50.328;8.542;2023-02-28T01:07:36;99553.41;;;-0.41;75.12
69971;BME280;57301;50.328;8.542;2023-02-28T01:10:03;99562.75;;;-0.57;75.65
69971;BME280;57301;50.328;8.542;2023-02-28T01:12:29;99568.44;;;-0.46;75.75
69971;BME280;57301;50.328;8.542;2023-02-28T01:14:56;99565.06;;;-0.49;75.59
69971;BME280;57301;50.328;8.542;2023-02-28T01:17:23;99559.28;;;-0.58;75.42
69971;BME280;57301;50.328;8.542;2023-02-28T01:19:49;99560.38;;;-0.63;75.76
69971;BME280;57301;50.328;8.542;2023-02-28T01:22:19;99560.81;;;-0.75;75.85
69971;BME280;57301;50.328;8.542;2023-02-28T01:24:45;99562.88;;;-0.84;76.46
69971;BME280;57301;50.328;8.542;2023-02-28T01:27:13;99562.47;;;-0.96;76.77
69971;BME280;57301;50.328;8.542;2023-02-28T01:29:40;99556.47;;;-1.00;77.21
69971;BME280;57301;50.328;8.542;2023-02-28T01:32:06;99553.50;;;-1.14;77.22
69971;BME280;57301;50.328;8.542;2023-02-28T01:34:33;99553.94;;;-1.26;78.16
69971;BME280;57301;50.328;8.542;2023-02-28T01:36:59;99557.25;;;-1.21;77.51
69971;BME280;57301;50.328;8.542;2023-02-28T01:39:26;99547.88;;;-1.27;78.14
69971;BME280;57301;50.328;8.542;2023-02-28T01:41:53;99551.75;;;-1.39;78.51
69971;BME280;57301;50.328;8.542;2023-02-28T01:47:36;99548.16;;;-1.61;79.38
69971;BME280;57301;50.328;8.542;2023-02-28T01:50:07;99548.97;;;-1.59;79.39
69971;BME280;57301;50.328;8.542;2023-02-28T01:52:35;99552.13;;;-1.49;79.58
69971;BME280;57301;50.328;8.542;2023-02-28T01:55:04;99550.34;;;-1.49;79.04
69971;BME280;57301;50.328;8.542;2023-02-28T01:57:37;99542.00;;;-1.60;79.85
69971;BME280;57301;50.328;8.542;2023-02-28T02:00:08;99545.66;;;-1.64;80.23
69971;BME280;57301;50.328;8.542;2023-02-28T02:02:36;99537.19;;;-1.72;80.71
69971;BME280;57301;50.328;8.542;2023-02-28T02:07:34;99547.25;;;-1.60;80.53
69971;BME280;57301;50.328;8.542;2023-02-28T02:10:10;99540.56;;;-1.69;80.26
69971;BME280;57301;50.328;8.542;2023-02-28T02:12:58;99537.13;;;-1.69;80.11
69971;BME280;57301;50.328;8.542;2023-02-28T02:18:27;99531.50;;;-1.83;81.01
69971;BME280;57301;50.328;8.542;2023-02-28T02:24:27;99531.72;;;-1.91;81.54
69971;BME280;57301;50.328;8.542;2023-02-28T02:27:35;99523.03;;;-1.92;82.05
69971;BME280;57301;50.328;8.542;2023-02-28T02:30:33;99518.66;;;-1.91;81.90
69971;BME280;57301;50.328;8.542;2023-02-28T02:36:26;99530.59;;;-1.82;80.68
69971;BME280;57301;50.328;8.542;2023-02-28T02:39:04;99528.38;;;-1.95;81.34
69971;BME280;57301;50.328;8.542;2023-02-28T02:44:13;99523.16;;;-1.95;81.84
69971;BME280;57301;50.328;8.542;2023-02-28T02:46:44;99525.50;;;-1.87;81.38
69971;BME280;57301;50.328;8.542;2023-02-28T02:49:18;99517.31;;;-2.03;81.89
69971;BME280;57301;50.328;8.542;2023-02-28T02:51:46;99519.03;;;-2.02;81.94
69971;BME280;57301;50.328;8.542;2023-02-28T02:54:17;99517.41;;;-2.06;81.97
69971;BME280;57301;50.328;8.542;2023-02-28T02:56:47;99518.31;;;-2.07;82.21
69971;BME280;57301;50.328;8.542;2023-02-28T02:59:18;99526.97;;;-2.05;82.46
69971;BME280;57301;50.328;8.542;2023-02-28T03:01:50;99526.06;;;-2.04;81.83
69971;BME280;57301;50.328;8.542;2023-02-28T03:04:20;99535.13;;;-1.87;81.77
69971;BME280;57301;50.328;8.542;2023-02-28T03:06:47;99531.72;;;-1.91;81.54
69971;BME280;57301;50.328;8.542;2023-02-28T03:09:14;99525.19;;;-2.04;81.24
69971;BME280;57301;50.328;8.542;2023-02-28T03:11:41;99533.56;;;-2.21;82.14
69971;BME280;57301;50.328;8.542;2023-02-28T03:17:06;99529.81;;;-2.12;82.09
69971;BME280;57301;50.328;8.542;2023-02-28T03:22:51;99527.34;;;-2.17;81.92
69971;BME280;57301;50.328;8.542;2023-02-28T03:25:35;99527.41;;;-2.19;81.87
69971;BME280;57301;50.328;8.542;2023-02-28T03:28:24;99525.19;;;-2.31;82.46
69971;BME280;57301;50.328;8.542;2023-02-28T03:31:12;99521.47;;;-2.24;81.88
69971;BME280;57301;50.328;8.542;2023-02-28T03:33:50;99528.50;;;-2.26;82.03
69971;BME280;57301;50.328;8.542;2023-02-28T03:36:30;99517.72;;;-2.43;82.56
69971;BME280;57301;50.328;8.542;2023-02-28T03:39:08;99513.50;;;-2.47;83.04
69971;BME280;57301;50.328;8.542;2023-02-28T03:41:40;99524.84;;;-2.48;82.92
69971;BME280;57301;50.328;8.542;2023-02-28T03:44:16;99528.19;;;-2.43;82.58
69971;BME280;57301;50.328;8.542;2023-02-28T03:46:54;99532.41;;;-2.39;82.21
69971;BME280;57301;50.328;8.542;2023-02-28T03:49:26;99532.88;;;-2.26;81.42
69971;BME280;57301;50.328;8.542;2023-02-28T03:51:56;99528.97;;;-2.41;81.93
69971;BME280;57301;50.328;8.542;2023-02-28T03:54:31;99521.44;;;-2.50;81.84
69971;BME280;57301;50.328;8.542;2023-02-28T03:57:21;99537.06;;;-2.49;81.71
69971;BME280;57301;50.328;8.542;2023-02-28T04:00:12;99537.06;;;-2.49;81.40
69971;BME280;57301;50.328;8.542;2023-02-28T04:02:40;99536.34;;;-2.54;81.49
69971;BME280;57301;50.328;8.542;2023-02-28T04:05:07;99529.28;;;-2.52;81.73
69971;BME280;57301;50.328;8.542;2023-02-28T04:07:34;99533.78;;;-2.55;81.35
69971;BME280;57301;50.328;8.542;2023-02-28T04:10:01;99535.53;;;-2.56;81.17
69971;BME280;57301;50.328;8.542;2023-02-28T04:12:27;99533.97;;;-2.61;81.16
69971;BME280;57301;50.328;8.542;2023-02-28T04:14:53;99531.66;;;-2.72;81.71
69971;BME280;57301;50.328;8.542;2023-02-28T04:17:20;99530.50;;;-2.62;81.99
69971;BME280;57301;50.328;8.542;2023-02-28T04:19:46;99531.13;;;-2.54;81.21
69971;BME280;57301;50.328;8.542;2023-02-28T04:22:13;99539.31;;;-2.66;81.26
69971;BME280;57301;50.328;8.542;2023-02-28T04:24:39;99525.72;;;-2.77;81.62
69971;BME280;57301;50.328;8.542;2023-02-28T04:27:09;99527.47;;;-2.78;81.73
69971;BME280;57301;50.328;8.542;2023-02-28T04:29:36;99538.94;;;-2.82;82.09
69971;BME280;57301;50.328;8.542;2023-02-28T04:32:03;99535.31;;;-2.78;81.78
69971;BME280;57301;50.328;8.542;2023-02-28T04:34:31;99526.06;;;-2.89;82.14
69971;BME280;57301;50.328;8.542;2023-02-28T04:36:58;99535.53;;;-2.85;82.08
69971;BME280;57301;50.328;8.542;2023-02-28T04:39:39;99539.84;;;-2.84;82.11
69971;BME280;57301;50.328;8.542;2023-02-28T04:42:06;99535.09;;;-2.70;81.81
69971;BME280;57301;50.328;8.542;2023-02-28T04:44:32;99532.38;;;-2.67;81.56
69971;BME280;57301;50.328;8.542;2023-02-28T04:46:59;99535.31;;;-2.78;81.63
69971;BME280;57301;50.328;8.542;2023-02-28T04:49:25;99531.66;;;-2.72;81.79
69971;BME280;57301;50.328;8.542;2023-02-28T04:51:52;99539.63;;;-2.77;81.61
69971;BME280;57301;50.328;8.542;2023-02-28T04:54:19;99533.84;;;-2.86;81.72
69971;BME280;57301;50.328;8.542;2023-02-28T04:56:46;99535.81;;;-2.94;82.83
69971;BME280;57301;50.328;8.542;2023-02-28T04:59:14;99536.44;;;-2.86;82.31
69971;BME280;57301;50.328;8.542;2023-02-28T05:01:46;99533.72;;;-2.83;82.38
69971;BME280;57301;50.328;8.542;2023-02-28T05:04:13;99539.78;;;-2.81;82.74
69971;BME280;57301;50.328;8.542;2023-02-28T05:06:40;99546.59;;;-2.77;82.63
69971;BME280;57301;50.328;8.542;2023-02-28T05:09:06;99545.38;;;-2.65;82.29
69971;BME280;57301;50.328;8.542;2023-02-28T05:11:33;99545.88;;;-2.53;81.93
69971;BME280;57301;50.328;8.542;2023-02-28T05:14:06;99545.13;;;-2.28;81.13
69971;BME280;57301;50.328;8.542;2023-02-28T05:16:35;99549.22;;;-2.20;80.49
69971;BME280;57301;50.328;8.542;2023-02-28T05:19:02;99548.19;;;-2.16;80.85
69971;BME280;57301;50.328;8.542;2023-02-28T05:21:40;99545.50;;;-2.12;80.59
69971;BME280;57301;50.328;8.542;2023-02-28T05:24:10;99543.81;;;-2.13;80.32
69971;BME280;57301;50.328;8.542;2023-02-28T05:26:40;99547.06;;;-2.07;80.79
69971;BME280;57301;50.328;8.542;2023-02-28T05:29:07;99554.53;;;-2.23;80.34
69971;BME280;57301;50.328;8.542;2023-02-28T05:31:34;99561.44;;;-2.20;80.32
69971;BME280;57301;50.328;8.542;2023-02-28T05:34:00;99549.03;;;-2.13;80.42
69971;BME280;57301;50.328;8.542;2023-02-28T05:36:27;99559.69;;;-2.21;80.88
69971;BME280;57301;50.328;8.542;2023-02-28T05:38:53;99559.88;;;-2.26;80.78
69971;BME280;57301;50.328;8.542;2023-02-28T05:41:20;99553.59;;;-2.20;80.32
69971;BME280;57301;50.328;8.542;2023-02-28T05:43:47;99556.88;;;-2.13;80.05
69971;BME280;57301;50.328;8.542;2023-02-28T05:46:14;99565.56;;;-2.13;80.43
69971;BME280;57301;50.328;8.542;2023-02-28T05:48:42;99559.94;;;-2.01;79.49
69971;BME280;57301;50.328;8.542;2023-02-28T05:51:11;99564.66;;;-2.12;79.74
69971;BME280;57301;50.328;8.542;2023-02-28T05:53:38;99560.06;;;-2.05;79.61
69971;BME280;57301;50.328;8.542;2023-02-28T05:56:04;99565.25;;;-2.04;79.09
69971;BME280;57301;50.328;8.542;2023-02-28T05:58:31;99565.31;;;-2.05;79.53
69971;BME280;57301;50.328;8.542;2023-02-28T06:00:59;99568.69;;;-2.02;79.19
69971;BME280;57301;50.328;8.542;2023-02-28T06:03:26;99572.16;;;-2.01;78.64
69971;BME280;57301;50.328;8.542;2023-02-28T06:05:53;99572.53;;;-2.13;79.03
69971;BME280;57301;50.328;8.542;2023-02-28T06:08:20;99577.72;;;-2.12;79.90
69971;BME280;57301;50.328;8.542;2023-02-28T06:10:46;99574.06;;;-2.06;79.17
69971;BME280;57301;50.328;8.542;2023-02-28T06:13:13;99573.47;;;-2.16;79.26
69971;BME280;57301;50.328;8.542;2023-02-28T06:15:39;99567.44;;;-2.18;79.28
69971;BME280;57301;50.328;8.542;2023-02-28T06:18:06;99573.84;;;-2.28;79.77
69971;BME280;57301;50.328;8.542;2023-02-28T06:20:33;99579.53;;;-2.14;79.39
69971;BME280;57301;50.328;8.542;2023-02-28T06:23:00;99578.88;;;-2.22;79.24
69971;BME280;57301;50.328;8.542;2023-02-28T06:25:27;99574.38;;;-2.17;79.45
69971;BME280;57301;50.328;8.542;2023-02-28T06:27:54;99570.06;;;-2.18;79.74
69971;BME280;57301;50.328;8.542;2023-02-28T06:30:22;99575.38;;;-2.21;79.10
69971;BME280;57301;50.328;8.542;2023-02-28T06:32:53;99578.38;;;-2.05;79.05
69971;BME280;57301;50.328;8.542;2023-02-28T06:35:20;99572.19;;;-1.50;78.08
69971;BME280;57301;50.328;8.542;2023-02-28T06:37:46;99577.91;;;-0.65;74.97
69971;BME280;57301;50.328;8.542;2023-02-28T06:40:13;99574.00;;;0.12;71.25
69971;BME280;57301;50.328;8.542;2023-02-28T06:42:40;99570.13;;;0.43;69.19
69971;BME280;57301;50.328;8.542;2023-02-28T06:45:07;99576.00;;;0.90;68.56
69971;BME280;57301;50.328;8.542;2023-02-28T06:47:37;99567.06;;;1.52;65.70
69971;BME280;57301;50.328;8.542;2023-02-28T06:50:05;99576.53;;;1.56;64.49
69971;BME280;57301;50.328;8.542;2023-02-28T06:52:32;99572.50;;;1.10;65.24
69971;BME280;57301;50.328;8.542;2023-02-28T06:54:59;99592.84;;;0.44;67.16
69971;BME280;57301;50.328;8.542;2023-02-28T06:57:29;99590.13;;;0.25;69.08
69971;BME280;57301;50.328;8.542;2023-02-28T07:00:00;99583.88;;;1.11;67.58
69971;BME280;57301;50.328;8.542;2023-02-28T07:02:27;99584.13;;;2.00;64.71
69971;BME280;57301;50.328;8.542;2023-02-28T07:04:54;99591.13;;;2.72;61.57
69971;BME280;57301;50.328;8.542;2023-02-28T07:07:21;99590.69;;;3.14;59.75
69971;BME280;57301;50.328;8.542;2023-02-28T07:09:47;99598.19;;;3.22;58.61
69971;BME280;57301;50.328;8.542;2023-02-28T07:12:14;99605.91;;;3.42;58.15
69971;BME280;57301;50.328;8.542;2023-02-28T07:14:40;99586.31;;;3.95;56.10
69971;BME280;57301;50.328;8.542;2023-02-28T07:17:10;99599.31;;;3.98;55.83
69971;BME280;57301;50.328;8.542;2023-02-28T07:19:39;99594.88;;;4.76;54.21
69971;BME280;57301;50.328;8.542;2023-02-28T07:22:06;99589.81;;;5.02;53.17
69971;BME280;57301;50.328;8.542;2023-02-28T07:24:33;99596.56;;;4.47;54.28
69971;BME280;57301;50.328;8.542;2023-02-28T07:26:59;99597.91;;;5.43;52.25
69971;BME280;57301;50.328;8.542;2023-02-28T07:29:27;99594.22;;;5.17;52.10
69971;BME280;57301;50.328;8.542;2023-02-28T07:31:53;99588.38;;;4.52;54.02
69971;BME280;57301;50.328;8.542;2023-02-28T07:34:20;99594.06;;;4.60;53.20
69971;BME280;57301;50.328;8.542;2023-02-28T07:36:47;99588.75;;;4.90;52.33
69971;BME280;57301;50.328;8.542;2023-02-28T07:39:14;99592.09;;;3.86;54.25
69971;BME280;57301;50.328;8.542;2023-02-28T07:41:40;99596.63;;;3.35;55.95
69971;BME280;57301;50.328;8.542;2023-02-28T07:44:11;99595.06;;;2.81;57.72
69971;BME280;57301;50.328;8.542;2023-02-28T07:46:38;99600.59;;;2.23;59.18
69971;BME280;57301;50.328;8.542;2023-02-28T07:49:06;99592.66;;;2.05;60.44
69971;BME280;57301;50.328;8.542;2023-02-28T07:51:32;99597.63;;;1.93;60.27
69971;BME280;57301;50.328;8.542;2023-02-28T07:53:59;99597.31;;;2.18;61.31
69971;BME280;57301;50.328;8.542;2023-02-28T07:56:25;99594.06;;;3.34;57.86
69971;BME280;57301;50.328;8.542;2023-02-28T07:58:53;99596.88;;;4.57;53.94
69971;BME280;57301;50.328;8.542;2023-02-28T08:01:19;99595.81;;;5.20;52.40
69971;BME280;57301;50.328;8.542;2023-02-28T08:03:46;99599.69;;;5.43;51.68
69971;BME280;57301;50.328;8.542;2023-02-28T08:06:19;99599.78;;;5.55;50.09
69971;BME280;57301;50.328;8.542;2023-02-28T08:08:46;99606.28;;;6.07;49.08
69971;BME280;57301;50.328;8.542;2023-02-28T08:11:14;99603.00;;;6.30;48.34
69971;BME280;57301;50.328;8.542;2023-02-28T08:13:41;99607.84;;;6.24;48.37
69971;BME280;57301;50.328;8.542;2023-02-28T08:16:10;99599.50;;;6.30;47.41
69971;BME280;57301;50.328;8.542;2023-02-28T08:18:37;99602.06;;;6.31;46.64
69971;BME280;57301;50.328;8.542;2023-02-28T08:21:08;99597.00;;;6.41;46.74
69971;BME280;57301;50.328;8.542;2023-02-28T08:23:34;99596.63;;;6.20;47.30
69971;BME280;57301;50.328;8.542;2023-02-28T08:26:02;99592.09;;;6.62;45.89
69971;BME280;57301;50.328;8.542;2023-02-28T08:28:28;99589.56;;;7.13;45.06
69971;BME280;57301;50.328;8.542;2023-02-28T08:30:55;99595.06;;;7.48;44.06
69971;BME280;57301;50.328;8.542;2023-02-28T08:33:22;99592.41;;;6.57;44.00
69971;BME280;57301;50.328;8.542;2023-02-28T08:35:53;99591.13;;;7.15;44.08
69971;BME280;57301;50.328;8.542;2023-02-28T08:38:20;99589.69;;;6.71;44.29
69971;BME280;57301;50.328;8.542;2023-02-28T08:40:46;99600.16;;;6.33;43.47
69971;BME280;57301;50.328;8.542;2023-02-28T08:43:13;99576.91;;;5.97;43.77
69971;BME280;57301;50.328;8.542;2023-02-28T08:45:39;99587.50;;;5.40;44.24
69971;BME280;57301;50.328;8.542;2023-02-28T08:48:06;99595.06;;;5.60;44.90
69971;BME280;57301;50.328;8.542;2023-02-28T08:50:33;99591.56;;;6.03;45.00
69971;BME280;57301;50.328;8.542;2023-02-28T08:52:59;99600.41;;;6.16;43.36
69971;BME280;57301;50.328;8.542;2023-02-28T08:55:26;99577.09;;;5.80;42.64
69971;BME280;57301;50.328;8.542;2023-02-28T08:57:52;99593.63;;;5.69;43.68
69971;BME280;57301;50.328;8.542;2023-02-28T09:00:19;99590.59;;;6.04;43.43
69971;BME280;57301;50.328;8.542;2023-02-28T09:02:46;99595.53;;;5.67;42.77
69971;BME280;57301;50.328;8.542;2023-02-28T09:05:12;99585.22;;;5.20;43.42
69971;BME280;57301;50.328;8.542;2023-02-28T09:07:39;99593.25;;;5.18;43.66
69971;BME280;57301;50.328;8.542;2023-02-28T09:10:06;99594.94;;;5.90;43.70
69971;BME280;57301;50.328;8.542;2023-02-28T09:12:34;99591.16;;;5.95;43.36
69971;BME280;57301;50.328;8.542;2023-02-28T09:15:01;99591.34;;;6.60;41.64
69971;BME280;57301;50.328;8.542;2023-02-28T09:17:28;99596.75;;;5.90;42.55
69971;BME280;57301;50.328;8.542;2023-02-28T09:19:56;99599.28;;;6.06;41.70
69971;BME280;57301;50.328;8.542;2023-02-28T09:22:23;99595.63;;;5.94;42.74
69971;BME280;57301;50.328;8.542;2023-02-28T09:24:49;99591.91;;;6.38;42.21
69971;BME280;57301;50.328;8.542;2023-02-28T09:27:16;99585.53;;;6.13;41.71
69971;BME280;57301;50.328;8.542;2023-02-28T09:29:42;99589.75;;;6.03;42.04
69971;BME280;57301;50.328;8.542;2023-02-28T09:32:09;99595.66;;;6.21;41.56
69971;BME280;57301;50.328;8.542;2023-02-28T09:34:36;99594.06;;;6.85;41.59
69971;BME280;57301;50.328;8.542;2023-02-28T09:37:03;99589.72;;;6.17;40.92
69971;BME280;57301;50.328;8.542;2023-02-28T09:39:30;99595.91;;;6.04;40.47
69971;BME280;57301;50.328;8.542;2023-02-28T09:41:58;99596.56;;;5.50;40.63
69971;BME280;57301;50.328;8.542;2023-02-28T09:44:38;99592.31;;;5.33;42.07
69971;BME280;57301;50.328;8.542;2023-02-28T09:47:18;99586.69;;;4.35;41.28
69971;BME280;57301;50.328;8.542;2023-02-28T09:49:47;99592.91;;;4.50;41.40
69971;BME280;57301;50.328;8.542;2023-02-28T09:52:30;99598.44;;;4.29;42.74
69971;BME280;57301;50.328;8.542;2023-02-28T09:55:34;99582.41;;;5.65;40.51
69971;BME280;57301;50.328;8.542;2023-02-28T09:58:26;99585.41;;;6.56;37.54
69971;BME280;57301;50.328;8.542;2023-02-28T10:03:41;99577.97;;;7.01;36.56
69971;BME280;57301;50.328;8.542;2023-02-28T10:06:14;99589.59;;;5.92;37.15
69971;BME280;57301;50.328;8.542;2023-02-28T10:08:55;99589.19;;;5.70;37.31
69971;BME280;57301;50.328;8.542;2023-02-28T10:11:24;99591.44;;;6.98;37.52
69971;BME280;57301;50.328;8.542;2023-02-28T10:14:00;99591.59;;;7.84;35.30
69971;BME280;57301;50.328;8.542;2023-02-28T10:16:35;99584.38;;;5.33;37.36
69971;BME280;57301;50.328;8.542;2023-02-28T10:19:06;99587.69;;;5.37;38.50
69971;BME280;57301;50.328;8.542;2023-02-28T10:21:46;99588.09;;;5.59;38.78
69971;BME280;57301;50.328;8.542;2023-02-28T10:24:28;99591.78;;;7.44;36.31
69971;BME280;57301;50.328;8.542;2023-02-28T10:29:44;99584.41;;;8.23;34.85
69971;BME280;57301;50.328;8.542;2023-02-28T10:32:16;99588.88;;;8.46;34.11
69971;BME280;57301;50.328;8.542;2023-02-28T10:34:44;99577.44;;;9.50;32.59
69971;BME280;57301;50.328;8.542;2023-02-28T10:37:12;99584.13;;;9.78;31.47
69971;BME280;57301;50.328;8.542;2023-02-28T10:39:43;99586.28;;;9.84;31.81
69971;BME280;57301;50.328;8.542;2023-02-28T10:42:29;99588.81;;;9.85;31.11
69971;BME280;57301;50.328;8.542;2023-02-28T10:45:06;99591.03;;;7.55;33.88
69971;BME280;57301;50.328;8.542;2023-02-28T10:47:34;99581.81;;;5.75;36.86
69971;BME280;57301;50.328;8.542;2023-02-28T10:50:03;99589.97;;;5.43;38.37
69971;BME280;57301;50.328;8.542;2023-02-28T10:52:36;99586.25;;;5.74;36.96
69971;BME280;57301;50.328;8.542;2023-02-28T10:55:22;99587.28;;;4.56;39.00
69971;BME280;57301;50.328;8.542;2023-02-28T10:57:49;99596.19;;;3.76;40.14
69971;BME280;57301;50.328;8.542;2023-02-28T11:00:25;99589.97;;;3.28;42.39
69971;BME280;57301;50.328;8.542;2023-02-28T11:02:51;99591.84;;;3.26;43.19
69971;BME280;57301;50.328;8.542;2023-02-28T11:05:32;99595.28;;;3.44;42.95
69971;BME280;57301;50.328;8.542;2023-02-28T11:08:12;99598.03;;;3.58;42.77
69971;BME280;57301;50.328;8.542;2023-02-28T11:11:28;99590.13;;;4.21;41.46
69971;BME280;57301;50.328;8.542;2023-02-28T11:13:36;99596.28;;;4.06;40.95
69971;BME280;57301;50.328;8.542;2023-02-28T11:16:06;99598.03;;;4.37;42.03
69971;BME280;57301;50.328;8.542;2023-02-28T11:18:40;99593.09;;;4.31;41.08
69971;BME280;57301;50.328;8.542;2023-02-28T11:21:08;99584.84;;;4.21;41.29
69971;BME280;57301;50.328;8.542;2023-02-28T11:23:37;99579.56;;;5.69;38.55
69971;BME280;57301;50.328;8.542;2023-02-28T11:26:06;99589.13;;;5.71;38.26
69971;BME280;57301;50.328;8.542;2023-02-28T11:28:41;99576.16;;;7.40;35.92
69971;BME280;57301;50.328;8.542;2023-02-28T11:36:20;99567.91;;;7.32;35.44
69971;BME280;57301;50.328;8.542;2023-02-28T11:38:48;99566.13;;;5.86;37.40
69971;BME280;57301;50.328;8.542;2023-02-28T11:41:33;99573.72;;;5.49;38.26
69971;BME280;57301;50.328;8.542;2023-02-28T11:47:19;99567.72;;;6.03;37.57
69971;BME280;57301;50.328;8.542;2023-02-28T11:55:35;99559.13;;;6.53;35.98
69971;BME280;57301;50.328;8.542;2023-02-28T12:00:49;99569.38;;;6.45;38.14
69971;BME280;57301;50.328;8.542;2023-02-28T12:06:30;99562.38;;;10.27;31.47
69971;BME280;57301;50.328;8.542;2023-02-28T12:15:23;99558.84;;;10.38;30.75
69971;BME280;57301;50.328;8.542;2023-02-28T12:21:04;99547.44;;;10.89;30.94
69971;BME280;57301;50.328;8.542;2023-02-28T12:26:38;99540.38;;;10.46;30.18
69971;BME280;57301;50.328;8.542;2023-02-28T12:29:22;99553.38;;;7.87;33.55
69971;BME280;57301;50.328;8.542;2023-02-28T12:31:58;99557.00;;;7.73;34.08
69971;BME280;57301;50.328;8.542;2023-02-28T12:34:31;99551.66;;;7.98;33.28
69971;BME280;57301;50.328;8.542;2023-02-28T12:37:02;99558.97;;;7.45;34.39
69971;BME280;57301;50.328;8.542;2023-02-28T12:39:35;99553.75;;;8.30;34.01
69971;BME280;57301;50.328;8.542;2023-02-28T12:42:30;99552.00;;;10.56;31.27
69971;BME280;57301;50.328;8.542;2023-02-28T12:45:05;99548.78;;;9.64;30.43
69971;BME280;57301;50.328;8.542;2023-02-28T12:47:38;99554.25;;;8.11;33.32
69971;BME280;57301;50.328;8.542;2023-02-28T12:50:09;99544.13;;;8.99;32.97
69971;BME280;57301;50.328;8.542;2023-02-28T12:52:58;99550.78;;;10.81;31.55
69971;BME280;57301;50.328;8.542;2023-02-28T12:58:41;99543.59;;;10.06;30.68
69971;BME280;57301;50.328;8.542;2023-02-28T13:01:34;99545.50;;;10.70;31.16
69971;BME280;57301;50.328;8.542;2023-02-28T13:09:33;99537.22;;;11.15;29.55
69971;BME280;57301;50.328;8.542;2023-02-28T13:12:00;99523.81;;;10.84;29.27
69971;BME280;57301;50.328;8.542;2023-02-28T13:14:36;99519.22;;;12.37;28.55
69971;BME280;57301;50.328;8.542;2023-02-28T13:17:11;99527.38;;;12.17;29.03
69971;BME280;57301;50.328;8.542;2023-02-28T13:20:14;99514.28;;;12.72;28.95
69971;BME280;57301;50.328;8.542;2023-02-28T13:22:43;99535.13;;;12.87;29.17
69971;BME280;57301;50.328;8.542;2023-02-28T13:27:57;99523.91;;;14.76;26.30
69971;BME280;57301;50.328;8.542;2023-02-28T13:33:36;99515.69;;;14.24;26.98
69971;BME280;57301;50.328;8.542;2023-02-28T13:36:22;99515.59;;;15.05;25.65
69971;BME280;57301;50.328;8.542;2023-02-28T13:38:54;99509.41;;;15.39;24.98
69971;BME280;57301;50.328;8.542;2023-02-28T13:41:41;99520.44;;;14.13;26.58
69971;BME280;57301;50.328;8.542;2023-02-28T13:44:23;99505.38;;;13.57;26.76
69971;BME280;57301;50.328;8.542;2023-02-28T13:51:53;99512.50;;;15.52;25.20
69971;BME280;57301;50.328;8.542;2023-02-28T13:54:31;99507.91;;;15.45;25.47
69971;BME280;57301;50.328;8.542;2023-02-28T14:00:17;99514.19;;;15.01;25.47
69971;BME280;57301;50.328;8.542;2023-02-28T14:05:33;99498.81;;;13.69;25.68
69971;BME280;57301;50.328;8.542;2023-02-28T14:10:48;99499.34;;;13.45;27.55
69971;BME280;57301;50.328;8.542;2023-02-28T14:13:43;99492.06;;;12.23;29.39
69971;BME280;57301;50.328;8.542;2023-02-28T14:16:16;99503.66;;;11.83;29.83
69971;BME280;57301;50.328;8.542;2023-02-28T14:19:10;99502.75;;;12.71;27.91
69971;BME280;57301;50.328;8.542;2023-02-28T14:33:38;99491.66;;;13.23;28.21
69971;BME280;57301;50.328;8.542;2023-02-28T14:36:30;99500.28;;;10.36;31.29
69971;BME280;57301;50.328;8.542;2023-02-28T14:39:07;99497.56;;;9.50;32.80
69971;BME280;57301;50.328;8.542;2023-02-28T14:41:39;99500.81;;;8.51;34.91
69971;BME280;57301;50.328;8.542;2023-02-28T14:44:22;99489.69;;;7.74;36.46
69971;BME280;57301;50.328;8.542;2023-02-28T14:46:57;99496.41;;;7.91;36.60
69971;BME280;57301;50.328;8.542;2023-02-28T14:49:29;99491.00;;;7.68;36.69
69971;BME280;57301;50.328;8.542;2023-02-28T14:52:06;99484.34;;;7.50;37.15
69971;BME280;57301;50.328;8.542;2023-02-28T14:54:37;99496.56;;;7.40;37.59
69971;BME280;57301;50.328;8.542;2023-02-28T14:57:04;99495.00;;;7.12;38.43
69971;BME280;57301;50.328;8.542;2023-02-28T14:59:35;99499.31;;;6.49;39.01
69971;BME280;57301;50.328;8.542;2023-02-28T15:02:21;99494.28;;;5.92;41.70
69971;BME280;57301;50.328;8.542;2023-02-28T15:05:00;99489.53;;;5.97;42.09
69971;BME280;57301;50.328;8.542;2023-02-28T15:07:27;99490.22;;;5.31;43.04